Country
Station

 

Weather  for  Fairbanks, Fairbanks International Airport  -  United States    United States

  
3 °C (37 °F)
    
 
 

Current METAR for Fairbanks, Fairbanks International Airport is :

PAFA 192053Z 03005KT 10SM SCT200 03/M11 A2949 RMK AO2 SLP994 T00281111 56015 $

 

This is a report for Fairbanks, Fairbanks International Airport - United States.
 
The report was made 36 minutes ago, at 20:53 UTC .
The wind was blowing at a speed of 2.6 meters per second (5.8 miles per hour) from north/northeast (030°).
 
The temperature was 3 °C (37 °F), with a dew-point at -11 °C (12 °F).
The temperature felt like 0 °C (32 °F).
 
The atmospheric pressure was 999 hPa (29.49 inHg).
The relative humidity was 34.8%.
 
There were scattered clouds at a height of 6096 meters (20000 feet).
 
The overall visibility was 16.1 kilometers (10.0 miles).
 

 
 
 
 

Country :   A   B   C   D   E   F   G   H   I   J   K   L   M   N   O   P   Q   R   S   T   U   V   W   Y   Z

 

Site Info  |  Disclaimer  |  Credits  |  Privacy
Contact us  |  Add to favorites
© 2013-2018 METARs - All rights reserved